sensor_id;sensor_type;location;lat;lon;timestamp;P1;durP1;ratioP1;P2;durP2;ratioP2
45254;SDS011;30989;52.078;21.014;2022-09-21T00:01:10;8.88;;;3.05;;
45254;SDS011;30989;52.078;21.014;2022-09-21T00:06:07;8.05;;;3.90;;
45254;SDS011;30989;52.078;21.014;2022-09-21T00:08:34;7.85;;;3.40;;
45254;SDS011;30989;52.078;21.014;2022-09-21T00:11:03;5.13;;;3.22;;
45254;SDS011;30989;52.078;21.014;2022-09-21T00:13:30;8.38;;;3.60;;
45254;SDS011;30989;52.078;21.014;2022-09-21T00:15:57;7.38;;;3.88;;
45254;SDS011;30989;52.078;21.014;2022-09-21T00:18:24;6.55;;;3.22;;
45254;SDS011;30989;52.078;21.014;2022-09-21T00:20:50;7.93;;;3.00;;
45254;SDS011;30989;52.078;21.014;2022-09-21T00:23:17;7.10;;;3.72;;
45254;SDS011;30989;52.078;21.014;2022-09-21T00:25:43;6.72;;;3.45;;
45254;SDS011;30989;52.078;21.014;2022-09-21T00:28:08;8.80;;;3.60;;
45254;SDS011;30989;52.078;21.014;2022-09-21T00:30:36;5.95;;;3.10;;
45254;SDS011;30989;52.078;21.014;2022-09-21T00:33:01;8.88;;;3.80;;
45254;SDS011;30989;52.078;21.014;2022-09-21T00:35:27;7.00;;;3.85;;
45254;SDS011;30989;52.078;21.014;2022-09-21T00:37:52;9.68;;;3.83;;
45254;SDS011;30989;52.078;21.014;2022-09-21T00:40:18;8.95;;;3.72;;
45254;SDS011;30989;52.078;21.014;2022-09-21T00:42:44;9.00;;;3.92;;
45254;SDS011;30989;52.078;21.014;2022-09-21T00:45:10;6.38;;;3.83;;
45254;SDS011;30989;52.078;21.014;2022-09-21T00:47:46;9.77;;;4.07;;
45254;SDS011;30989;52.078;21.014;2022-09-21T00:50:15;6.32;;;3.00;;
45254;SDS011;30989;52.078;21.014;2022-09-21T00:52:44;6.25;;;3.17;;
45254;SDS011;30989;52.078;21.014;2022-09-21T00:55:15;6.65;;;3.30;;
45254;SDS011;30989;52.078;21.014;2022-09-21T00:57:47;7.15;;;3.92;;
45254;SDS011;30989;52.078;21.014;2022-09-21T01:00:18;5.75;;;3.63;;
45254;SDS011;30989;52.078;21.014;2022-09-21T01:02:47;7.75;;;3.30;;
45254;SDS011;30989;52.078;21.014;2022-09-21T01:05:12;6.07;;;2.90;;
45254;SDS011;30989;52.078;21.014;2022-09-21T01:07:39;7.25;;;3.67;;
45254;SDS011;30989;52.078;21.014;2022-09-21T01:10:10;7.93;;;3.58;;
45254;SDS011;30989;52.078;21.014;2022-09-21T01:15:23;7.72;;;3.13;;
45254;SDS011;30989;52.078;21.014;2022-09-21T01:26:47;6.22;;;3.22;;
45254;SDS011;30989;52.078;21.014;2022-09-21T01:30:04;7.93;;;3.58;;
45254;SDS011;30989;52.078;21.014;2022-09-21T01:32:27;9.20;;;2.92;;
45254;SDS011;30989;52.078;21.014;2022-09-21T01:40:33;7.07;;;3.67;;
45254;SDS011;30989;52.078;21.014;2022-09-21T01:43:08;6.28;;;3.50;;
45254;SDS011;30989;52.078;21.014;2022-09-21T01:45:39;6.25;;;3.50;;
45254;SDS011;30989;52.078;21.014;2022-09-21T01:48:09;6.05;;;3.28;;
45254;SDS011;30989;52.078;21.014;2022-09-21T01:50:42;9.25;;;4.80;;
45254;SDS011;30989;52.078;21.014;2022-09-21T01:53:21;16.33;;;4.43;;
45254;SDS011;30989;52.078;21.014;2022-09-21T01:55:52;11.77;;;4.63;;
45254;SDS011;30989;52.078;21.014;2022-09-21T01:58:28;8.80;;;4.45;;
45254;SDS011;30989;52.078;21.014;2022-09-21T02:00:57;8.52;;;3.40;;
45254;SDS011;30989;52.078;21.014;2022-09-21T02:03:28;7.35;;;3.97;;
45254;SDS011;30989;52.078;21.014;2022-09-21T02:05:59;8.50;;;3.70;;
45254;SDS011;30989;52.078;21.014;2022-09-21T02:08:28;5.90;;;3.00;;
45254;SDS011;30989;52.078;21.014;2022-09-21T02:10:56;17.58;;;4.13;;
45254;SDS011;30989;52.078;21.014;2022-09-21T02:13:24;6.00;;;3.42;;
45254;SDS011;30989;52.078;21.014;2022-09-21T02:19:20;8.18;;;3.40;;
45254;SDS011;30989;52.078;21.014;2022-09-21T02:22:06;7.93;;;3.67;;
45254;SDS011;30989;52.078;21.014;2022-09-21T02:24:49;7.95;;;4.65;;
45254;SDS011;30989;52.078;21.014;2022-09-21T02:38:33;8.57;;;4.20;;
45254;SDS011;30989;52.078;21.014;2022-09-21T02:43:49;12.30;;;5.20;;
45254;SDS011;30989;52.078;21.014;2022-09-21T02:46:21;12.77;;;4.45;;
45254;SDS011;30989;52.078;21.014;2022-09-21T02:48:53;6.28;;;3.78;;
45254;SDS011;30989;52.078;21.014;2022-09-21T02:51:24;8.30;;;3.88;;
45254;SDS011;30989;52.078;21.014;2022-09-21T02:54:02;7.15;;;3.72;;
45254;SDS011;30989;52.078;21.014;2022-09-21T02:56:30;10.00;;;4.18;;
45254;SDS011;30989;52.078;21.014;2022-09-21T02:58:57;9.60;;;4.80;;
45254;SDS011;30989;52.078;21.014;2022-09-21T03:01:26;8.90;;;4.65;;
45254;SDS011;30989;52.078;21.014;2022-09-21T03:03:53;9.60;;;4.28;;
45254;SDS011;30989;52.078;21.014;2022-09-21T03:06:19;8.40;;;4.50;;
45254;SDS011;30989;52.078;21.014;2022-09-21T03:08:45;9.95;;;3.97;;
45254;SDS011;30989;52.078;21.014;2022-09-21T03:11:14;8.90;;;4.13;;
45254;SDS011;30989;52.078;21.014;2022-09-21T03:13:43;11.95;;;4.28;;
45254;SDS011;30989;52.078;21.014;2022-09-21T03:16:09;13.20;;;5.45;;
45254;SDS011;30989;52.078;21.014;2022-09-21T03:18:36;8.23;;;4.35;;
45254;SDS011;30989;52.078;21.014;2022-09-21T03:21:01;9.88;;;4.72;;
45254;SDS011;30989;52.078;21.014;2022-09-21T03:23:27;8.57;;;4.93;;
45254;SDS011;30989;52.078;21.014;2022-09-21T03:25:53;12.82;;;5.65;;
45254;SDS011;30989;52.078;21.014;2022-09-21T03:28:19;7.72;;;4.63;;
45254;SDS011;30989;52.078;21.014;2022-09-21T03:30:48;19.42;;;8.35;;
45254;SDS011;30989;52.078;21.014;2022-09-21T03:33:16;12.10;;;5.65;;
45254;SDS011;30989;52.078;21.014;2022-09-21T03:35:43;9.75;;;5.60;;
45254;SDS011;30989;52.078;21.014;2022-09-21T03:38:10;8.88;;;4.63;;
45254;SDS011;30989;52.078;21.014;2022-09-21T03:40:39;12.90;;;5.47;;
45254;SDS011;30989;52.078;21.014;2022-09-21T03:43:04;9.43;;;4.70;;
45254;SDS011;30989;52.078;21.014;2022-09-21T03:45:30;9.00;;;4.72;;
45254;SDS011;30989;52.078;21.014;2022-09-21T03:47:56;9.85;;;4.85;;
45254;SDS011;30989;52.078;21.014;2022-09-21T03:50:23;11.73;;;6.05;;
45254;SDS011;30989;52.078;21.014;2022-09-21T03:52:49;10.75;;;5.28;;
45254;SDS011;30989;52.078;21.014;2022-09-21T03:55:15;12.98;;;6.72;;
45254;SDS011;30989;52.078;21.014;2022-09-21T03:57:41;10.27;;;4.75;;
45254;SDS011;30989;52.078;21.014;2022-09-21T04:00:07;11.95;;;5.55;;
45254;SDS011;30989;52.078;21.014;2022-09-21T04:02:38;11.82;;;5.45;;
45254;SDS011;30989;52.078;21.014;2022-09-21T04:05:10;10.07;;;5.78;;
45254;SDS011;30989;52.078;21.014;2022-09-21T04:07:38;14.15;;;6.28;;
45254;SDS011;30989;52.078;21.014;2022-09-21T04:10:06;10.95;;;5.35;;
45254;SDS011;30989;52.078;21.014;2022-09-21T04:12:37;13.07;;;5.68;;
45254;SDS011;30989;52.078;21.014;2022-09-21T04:15:03;11.57;;;5.70;;
45254;SDS011;30989;52.078;21.014;2022-09-21T04:17:31;10.32;;;5.60;;
45254;SDS011;30989;52.078;21.014;2022-09-21T04:19:57;10.15;;;5.43;;
45254;SDS011;30989;52.078;21.014;2022-09-21T04:22:23;11.60;;;6.70;;
45254;SDS011;30989;52.078;21.014;2022-09-21T04:24:49;8.55;;;5.00;;
45254;SDS011;30989;52.078;21.014;2022-09-21T04:27:15;13.32;;;6.25;;
45254;SDS011;30989;52.078;21.014;2022-09-21T04:29:40;14.80;;;6.80;;
45254;SDS011;30989;52.078;21.014;2022-09-21T04:32:06;9.85;;;5.32;;
45254;SDS011;30989;52.078;21.014;2022-09-21T04:34:32;9.88;;;4.90;;
45254;SDS011;30989;52.078;21.014;2022-09-21T04:36:58;10.43;;;5.93;;
45254;SDS011;30989;52.078;21.014;2022-09-21T04:39:24;8.88;;;5.25;;
45254;SDS011;30989;52.078;21.014;2022-09-21T04:41:50;11.75;;;6.88;;
45254;SDS011;30989;52.078;21.014;2022-09-21T04:44:15;10.10;;;5.72;;
45254;SDS011;30989;52.078;21.014;2022-09-21T04:46:43;9.95;;;5.65;;
45254;SDS011;30989;52.078;21.014;2022-09-21T04:49:09;10.05;;;6.07;;
45254;SDS011;30989;52.078;21.014;2022-09-21T04:51:35;15.25;;;6.75;;
45254;SDS011;30989;52.078;21.014;2022-09-21T04:54:00;9.57;;;5.97;;
45254;SDS011;30989;52.078;21.014;2022-09-21T04:56:26;10.10;;;6.20;;
45254;SDS011;30989;52.078;21.014;2022-09-21T04:58:51;16.67;;;5.55;;
45254;SDS011;30989;52.078;21.014;2022-09-21T05:01:17;13.00;;;6.35;;
45254;SDS011;30989;52.078;21.014;2022-09-21T05:03:42;12.15;;;5.72;;
45254;SDS011;30989;52.078;21.014;2022-09-21T05:06:08;10.43;;;5.03;;
45254;SDS011;30989;52.078;21.014;2022-09-21T05:08:37;9.82;;;5.93;;
45254;SDS011;30989;52.078;21.014;2022-09-21T05:11:22;10.20;;;5.20;;
45254;SDS011;30989;52.078;21.014;2022-09-21T05:13:48;11.43;;;6.30;;
45254;SDS011;30989;52.078;21.014;2022-09-21T05:16:14;9.80;;;6.13;;
45254;SDS011;30989;52.078;21.014;2022-09-21T05:18:40;12.00;;;7.30;;
45254;SDS011;30989;52.078;21.014;2022-09-21T05:21:06;10.43;;;5.97;;
45254;SDS011;30989;52.078;21.014;2022-09-21T05:23:32;10.80;;;5.68;;
45254;SDS011;30989;52.078;21.014;2022-09-21T05:25:57;10.48;;;5.93;;
45254;SDS011;30989;52.078;21.014;2022-09-21T05:28:24;9.63;;;5.78;;
45254;SDS011;30989;52.078;21.014;2022-09-21T05:30:57;8.57;;;4.82;;
45254;SDS011;30989;52.078;21.014;2022-09-21T05:33:28;11.70;;;5.55;;
45254;SDS011;30989;52.078;21.014;2022-09-21T05:38:47;11.02;;;6.47;;
45254;SDS011;30989;52.078;21.014;2022-09-21T05:41:13;10.40;;;5.93;;
45254;SDS011;30989;52.078;21.014;2022-09-21T05:43:38;9.63;;;5.47;;
45254;SDS011;30989;52.078;21.014;2022-09-21T05:46:10;8.98;;;5.15;;
45254;SDS011;30989;52.078;21.014;2022-09-21T05:48:44;7.18;;;4.40;;
45254;SDS011;30989;52.078;21.014;2022-09-21T05:51:38;9.98;;;4.78;;
45254;SDS011;30989;52.078;21.014;2022-09-21T06:04:39;10.38;;;5.60;;
45254;SDS011;30989;52.078;21.014;2022-09-21T06:07:05;7.50;;;4.85;;
45254;SDS011;30989;52.078;21.014;2022-09-21T06:09:31;10.32;;;4.90;;
45254;SDS011;30989;52.078;21.014;2022-09-21T06:11:57;10.85;;;5.55;;
45254;SDS011;30989;52.078;21.014;2022-09-21T06:14:23;13.57;;;5.97;;
45254;SDS011;30989;52.078;21.014;2022-09-21T06:16:50;9.75;;;5.18;;
45254;SDS011;30989;52.078;21.014;2022-09-21T06:19:16;7.55;;;4.75;;
45254;SDS011;30989;52.078;21.014;2022-09-21T06:21:42;10.43;;;4.55;;
45254;SDS011;30989;52.078;21.014;2022-09-21T06:24:07;10.40;;;5.35;;
45254;SDS011;30989;52.078;21.014;2022-09-21T06:26:33;11.27;;;4.82;;
45254;SDS011;30989;52.078;21.014;2022-09-21T06:28:59;11.27;;;5.55;;
45254;SDS011;30989;52.078;21.014;2022-09-21T06:31:27;9.90;;;5.38;;
45254;SDS011;30989;52.078;21.014;2022-09-21T06:33:53;7.90;;;4.47;;
45254;SDS011;30989;52.078;21.014;2022-09-21T06:36:18;9.00;;;4.47;;
45254;SDS011;30989;52.078;21.014;2022-09-21T06:38:44;8.07;;;3.83;;
45254;SDS011;30989;52.078;21.014;2022-09-21T06:41:09;11.45;;;5.75;;
45254;SDS011;30989;52.078;21.014;2022-09-21T06:43:35;8.20;;;3.60;;
45254;SDS011;30989;52.078;21.014;2022-09-21T06:46:01;10.25;;;4.60;;
45254;SDS011;30989;52.078;21.014;2022-09-21T06:48:27;8.23;;;3.95;;
45254;SDS011;30989;52.078;21.014;2022-09-21T06:51:01;7.43;;;3.30;;
45254;SDS011;30989;52.078;21.014;2022-09-21T06:53:29;6.07;;;3.53;;
45254;SDS011;30989;52.078;21.014;2022-09-21T06:56:05;5.05;;;3.05;;
45254;SDS011;30989;52.078;21.014;2022-09-21T06:58:32;4.93;;;3.33;;
45254;SDS011;30989;52.078;21.014;2022-09-21T07:01:17;6.13;;;3.40;;
45254;SDS011;30989;52.078;21.014;2022-09-21T07:03:43;6.93;;;3.75;;
45254;SDS011;30989;52.078;21.014;2022-09-21T07:06:12;4.90;;;3.00;;
45254;SDS011;30989;52.078;21.014;2022-09-21T07:08:40;9.75;;;2.83;;
45254;SDS011;30989;52.078;21.014;2022-09-21T07:11:06;8.90;;;2.75;;
45254;SDS011;30989;52.078;21.014;2022-09-21T07:13:32;5.03;;;2.60;;
45254;SDS011;30989;52.078;21.014;2022-09-21T07:16:03;5.68;;;2.78;;
45254;SDS011;30989;52.078;21.014;2022-09-21T07:18:31;6.25;;;2.47;;
45254;SDS011;30989;52.078;21.014;2022-09-21T07:21:01;9.48;;;2.58;;
45254;SDS011;30989;52.078;21.014;2022-09-21T07:23:30;6.60;;;2.35;;
45254;SDS011;30989;52.078;21.014;2022-09-21T07:25:59;4.22;;;1.88;;
45254;SDS011;30989;52.078;21.014;2022-09-21T07:28:26;3.47;;;1.80;;
45254;SDS011;30989;52.078;21.014;2022-09-21T07:30:52;6.55;;;2.30;;
45254;SDS011;30989;52.078;21.014;2022-09-21T07:33:17;5.78;;;1.88;;
45254;SDS011;30989;52.078;21.014;2022-09-21T07:35:49;3.25;;;1.52;;
45254;SDS011;30989;52.078;21.014;2022-09-21T07:38:15;5.38;;;2.10;;
45254;SDS011;30989;52.078;21.014;2022-09-21T07:40:41;3.70;;;1.50;;
45254;SDS011;30989;52.078;21.014;2022-09-21T07:43:06;7.30;;;1.60;;
45254;SDS011;30989;52.078;21.014;2022-09-21T07:45:31;10.65;;;1.77;;
45254;SDS011;30989;52.078;21.014;2022-09-21T07:48:01;2.50;;;1.42;;
45254;SDS011;30989;52.078;21.014;2022-09-21T07:50:28;5.47;;;1.48;;
45254;SDS011;30989;52.078;21.014;2022-09-21T07:52:53;4.10;;;1.67;;
45254;SDS011;30989;52.078;21.014;2022-09-21T07:55:18;3.95;;;1.65;;
45254;SDS011;30989;52.078;21.014;2022-09-21T07:57:44;5.53;;;1.83;;
45254;SDS011;30989;52.078;21.014;2022-09-21T08:00:28;3.80;;;1.40;;
45254;SDS011;30989;52.078;21.014;2022-09-21T08:02:57;5.50;;;1.40;;
45254;SDS011;30989;52.078;21.014;2022-09-21T08:05:22;2.65;;;1.13;;
45254;SDS011;30989;52.078;21.014;2022-09-21T08:07:48;4.43;;;1.10;;
45254;SDS011;30989;52.078;21.014;2022-09-21T08:10:13;6.25;;;1.92;;
45254;SDS011;30989;52.078;21.014;2022-09-21T08:12:39;3.38;;;1.33;;
45254;SDS011;30989;52.078;21.014;2022-09-21T08:15:05;3.70;;;1.17;;
45254;SDS011;30989;52.078;21.014;2022-09-21T08:17:31;2.80;;;1.25;;
45254;SDS011;30989;52.078;21.014;2022-09-21T08:19:57;6.05;;;1.67;;
45254;SDS011;30989;52.078;21.014;2022-09-21T08:22:22;5.43;;;1.15;;
45254;SDS011;30989;52.078;21.014;2022-09-21T08:24:50;3.38;;;1.00;;
45254;SDS011;30989;52.078;21.014;2022-09-21T08:27:16;4.72;;;1.20;;
45254;SDS011;30989;52.078;21.014;2022-09-21T08:29:44;5.20;;;1.95;;
45254;SDS011;30989;52.078;21.014;2022-09-21T08:32:10;3.58;;;1.50;;
45254;SDS011;30989;52.078;21.014;2022-09-21T08:34:36;3.90;;;1.25;;
45254;SDS011;30989;52.078;21.014;2022-09-21T08:37:01;4.57;;;1.88;;
45254;SDS011;30989;52.078;21.014;2022-09-21T08:39:27;3.90;;;1.23;;
45254;SDS011;30989;52.078;21.014;2022-09-21T08:47:09;2.17;;;1.08;;
45254;SDS011;30989;52.078;21.014;2022-09-21T08:49:40;2.13;;;0.90;;
45254;SDS011;30989;52.078;21.014;2022-09-21T08:52:11;2.08;;;1.00;;
45254;SDS011;30989;52.078;21.014;2022-09-21T08:54:58;5.30;;;1.50;;
45254;SDS011;30989;52.078;21.014;2022-09-21T08:57:30;5.38;;;1.05;;
45254;SDS011;30989;52.078;21.014;2022-09-21T08:59:58;5.53;;;1.10;;
45254;SDS011;30989;52.078;21.014;2022-09-21T09:10:16;3.95;;;1.15;;
45254;SDS011;30989;52.078;21.014;2022-09-21T09:18:47;1.98;;;1.00;;
45254;SDS011;30989;52.078;21.014;2022-09-21T09:21:18;1.83;;;0.90;;
45254;SDS011;30989;52.078;21.014;2022-09-21T09:23:50;7.70;;;1.10;;
45254;SDS011;30989;52.078;21.014;2022-09-21T09:26:31;4.93;;;1.00;;
45254;SDS011;30989;52.078;21.014;2022-09-21T09:29:02;1.77;;;0.82;;
45254;SDS011;30989;52.078;21.014;2022-09-21T09:31:36;1.75;;;0.77;;
45254;SDS011;30989;52.078;21.014;2022-09-21T09:36:37;2.42;;;1.10;;
45254;SDS011;30989;52.078;21.014;2022-09-21T09:39:14;4.43;;;0.90;;
45254;SDS011;30989;52.078;21.014;2022-09-21T09:44:28;2.47;;;1.05;;
45254;SDS011;30989;52.078;21.014;2022-09-21T09:47:23;7.85;;;1.17;;
45254;SDS011;30989;52.078;21.014;2022-09-21T09:52:44;2.90;;;0.95;;
45254;SDS011;30989;52.078;21.014;2022-09-21T09:57:38;9.88;;;1.50;;
45254;SDS011;30989;52.078;21.014;2022-09-21T10:00:04;2.00;;;1.00;;
45254;SDS011;30989;52.078;21.014;2022-09-21T10:02:49;1.75;;;0.80;;
45254;SDS011;30989;52.078;21.014;2022-09-21T10:05:23;2.75;;;1.00;;
45254;SDS011;30989;52.078;21.014;2022-09-21T10:07:55;4.72;;;1.10;;
45254;SDS011;30989;52.078;21.014;2022-09-21T10:13:12;2.22;;;0.90;;
45254;SDS011;30989;52.078;21.014;2022-09-21T10:21:04;5.05;;;0.95;;
45254;SDS011;30989;52.078;21.014;2022-09-21T10:23:31;1.67;;;0.82;;
45254;SDS011;30989;52.078;21.014;2022-09-21T10:28:27;2.15;;;1.15;;
45254;SDS011;30989;52.078;21.014;2022-09-21T10:31:09;2.58;;;1.00;;
45254;SDS011;30989;52.078;21.014;2022-09-21T10:33:46;3.85;;;0.80;;
45254;SDS011;30989;52.078;21.014;2022-09-21T10:38:49;6.53;;;1.05;;
45254;SDS011;30989;52.078;21.014;2022-09-21T10:41:16;4.07;;;1.05;;
45254;SDS011;30989;52.078;21.014;2022-09-21T10:43:42;1.70;;;0.80;;
45254;SDS011;30989;52.078;21.014;2022-09-21T10:46:08;1.42;;;0.70;;
45254;SDS011;30989;52.078;21.014;2022-09-21T10:48:35;2.47;;;1.30;;
45254;SDS011;30989;52.078;21.014;2022-09-21T10:51:00;4.07;;;0.85;;
45254;SDS011;30989;52.078;21.014;2022-09-21T10:53:28;1.48;;;0.70;;
45254;SDS011;30989;52.078;21.014;2022-09-21T11:26:32;1.98;;;0.95;;
45254;SDS011;30989;52.078;21.014;2022-09-21T11:29:14;2.00;;;0.60;;
45254;SDS011;30989;52.078;21.014;2022-09-21T11:43:07;4.53;;;1.00;;
45254;SDS011;30989;52.078;21.014;2022-09-21T11:45:56;3.08;;;1.20;;
45254;SDS011;30989;52.078;21.014;2022-09-21T11:57:25;10.15;;;1.73;;
45254;SDS011;30989;52.078;21.014;2022-09-21T12:05:18;5.55;;;1.75;;
45254;SDS011;30989;52.078;21.014;2022-09-21T12:08:03;2.92;;;1.33;;
45254;SDS011;30989;52.078;21.014;2022-09-21T12:10:36;3.63;;;1.27;;
45254;SDS011;30989;52.078;21.014;2022-09-21T12:15:56;2.22;;;1.00;;
45254;SDS011;30989;52.078;21.014;2022-09-21T12:21:20;5.03;;;1.13;;
45254;SDS011;30989;52.078;21.014;2022-09-21T12:26:25;4.57;;;0.88;;
45254;SDS011;30989;52.078;21.014;2022-09-21T12:28:59;1.23;;;0.57;;
45254;SDS011;30989;52.078;21.014;2022-09-21T12:31:36;3.63;;;0.68;;
45254;SDS011;30989;52.078;21.014;2022-09-21T12:34:09;1.30;;;0.75;;
45254;SDS011;30989;52.078;21.014;2022-09-21T12:36:50;1.58;;;0.60;;
45254;SDS011;30989;52.078;21.014;2022-09-21T12:39:31;1.75;;;1.00;;
45254;SDS011;30989;52.078;21.014;2022-09-21T12:42:20;3.70;;;1.90;;
45254;SDS011;30989;52.078;21.014;2022-09-21T12:44:57;6.80;;;1.35;;
45254;SDS011;30989;52.078;21.014;2022-09-21T12:50:38;2.85;;;0.98;;
45254;SDS011;30989;52.078;21.014;2022-09-21T12:53:17;3.25;;;1.20;;
45254;SDS011;30989;52.078;21.014;2022-09-21T12:58:29;4.47;;;1.08;;
45254;SDS011;30989;52.078;21.014;2022-09-21T13:04:08;4.22;;;0.70;;
45254;SDS011;30989;52.078;21.014;2022-09-21T13:09:40;2.42;;;0.77;;
45254;SDS011;30989;52.078;21.014;2022-09-21T13:14:42;1.17;;;0.47;;
45254;SDS011;30989;52.078;21.014;2022-09-21T13:17:21;0.93;;;0.60;;
45254;SDS011;30989;52.078;21.014;2022-09-21T13:20:22;2.03;;;0.52;;
45254;SDS011;30989;52.078;21.014;2022-09-21T13:22:42;5.03;;;0.90;;
45254;SDS011;30989;52.078;21.014;2022-09-21T13:25:19;1.48;;;0.80;;
45254;SDS011;30989;52.078;21.014;2022-09-21T13:40:59;1.75;;;0.60;;
45254;SDS011;30989;52.078;21.014;2022-09-21T13:54:19;1.73;;;0.60;;
45254;SDS011;30989;52.078;21.014;2022-09-21T13:59:32;1.00;;;0.40;;
45254;SDS011;30989;52.078;21.014;2022-09-21T14:01:59;0.70;;;0.45;;
45254;SDS011;30989;52.078;21.014;2022-09-21T14:04:31;1.52;;;0.40;;
45254;SDS011;30989;52.078;21.014;2022-09-21T14:07:01;0.98;;;0.40;;
45254;SDS011;30989;52.078;21.014;2022-09-21T14:09:32;0.73;;;0.40;;
45254;SDS011;30989;52.078;21.014;2022-09-21T14:12:06;4.63;;;0.47;;
45254;SDS011;30989;52.078;21.014;2022-09-21T14:14:41;1.95;;;0.68;;
45254;SDS011;30989;52.078;21.014;2022-09-21T14:27:48;2.67;;;0.77;;
45254;SDS011;30989;52.078;21.014;2022-09-21T14:30:23;1.75;;;0.82;;
45254;SDS011;30989;52.078;21.014;2022-09-21T14:35:41;4.10;;;1.60;;
45254;SDS011;30989;52.078;21.014;2022-09-21T14:41:00;1.92;;;0.80;;
45254;SDS011;30989;52.078;21.014;2022-09-21T14:43:32;3.67;;;0.82;;
45254;SDS011;30989;52.078;21.014;2022-09-21T14:57:44;1.92;;;0.68;;
45254;SDS011;30989;52.078;21.014;2022-09-21T15:00:36;12.65;;;2.40;;
45254;SDS011;30989;52.078;21.014;2022-09-21T15:06:21;1.70;;;1.00;;
45254;SDS011;30989;52.078;21.014;2022-09-21T15:12:53;2.53;;;0.80;;
45254;SDS011;30989;52.078;21.014;2022-09-21T15:18:21;1.77;;;0.75;;
45254;SDS011;30989;52.078;21.014;2022-09-21T15:20:57;1.40;;;0.60;;
45254;SDS011;30989;52.078;21.014;2022-09-21T15:23:30;2.63;;;0.65;;
45254;SDS011;30989;52.078;21.014;2022-09-21T15:25:59;3.78;;;1.67;;
45254;SDS011;30989;52.078;21.014;2022-09-21T15:28:35;1.17;;;0.52;;
45254;SDS011;30989;52.078;21.014;2022-09-21T15:31:03;2.22;;;0.90;;
45254;SDS011;30989;52.078;21.014;2022-09-21T15:33:36;1.67;;;0.93;;
45254;SDS011;30989;52.078;21.014;2022-09-21T15:36:05;1.58;;;0.70;;
45254;SDS011;30989;52.078;21.014;2022-09-21T15:38:34;2.85;;;0.85;;
45254;SDS011;30989;52.078;21.014;2022-09-21T15:41:02;3.05;;;0.60;;
45254;SDS011;30989;52.078;21.014;2022-09-21T15:43:32;4.35;;;1.15;;
45254;SDS011;30989;52.078;21.014;2022-09-21T15:46:04;1.80;;;0.88;;
45254;SDS011;30989;52.078;21.014;2022-09-21T15:48:35;3.35;;;1.00;;
45254;SDS011;30989;52.078;21.014;2022-09-21T15:51:26;1.90;;;0.75;;
45254;SDS011;30989;52.078;21.014;2022-09-21T15:53:57;2.28;;;1.10;;
45254;SDS011;30989;52.078;21.014;2022-09-21T15:56:42;2.83;;;1.17;;
45254;SDS011;30989;52.078;21.014;2022-09-21T15:59:11;4.22;;;0.93;;
45254;SDS011;30989;52.078;21.014;2022-09-21T16:01:49;4.00;;;0.82;;
45254;SDS011;30989;52.078;21.014;2022-09-21T16:04:18;4.35;;;1.10;;
45254;SDS011;30989;52.078;21.014;2022-09-21T16:07:23;2.58;;;1.00;;
45254;SDS011;30989;52.078;21.014;2022-09-21T16:09:48;5.15;;;2.17;;
45254;SDS011;30989;52.078;21.014;2022-09-21T16:15:15;3.92;;;1.48;;
45254;SDS011;30989;52.078;21.014;2022-09-21T16:17:52;4.75;;;2.33;;
45254;SDS011;30989;52.078;21.014;2022-09-21T16:20:39;5.78;;;2.88;;
45254;SDS011;30989;52.078;21.014;2022-09-21T16:23:12;5.20;;;2.45;;
45254;SDS011;30989;52.078;21.014;2022-09-21T16:25:42;3.13;;;1.25;;
45254;SDS011;30989;52.078;21.014;2022-09-21T16:30:47;3.33;;;1.20;;
45254;SDS011;30989;52.078;21.014;2022-09-21T16:39:01;2.70;;;1.48;;
45254;SDS011;30989;52.078;21.014;2022-09-21T16:41:47;5.45;;;1.77;;
45254;SDS011;30989;52.078;21.014;2022-09-21T16:44:18;2.75;;;1.10;;
45254;SDS011;30989;52.078;21.014;2022-09-21T16:46:51;6.05;;;2.80;;
45254;SDS011;30989;52.078;21.014;2022-09-21T16:49:18;3.30;;;1.33;;
45254;SDS011;30989;52.078;21.014;2022-09-21T16:51:46;3.47;;;1.27;;
45254;SDS011;30989;52.078;21.014;2022-09-21T16:54:14;1.77;;;0.90;;
45254;SDS011;30989;52.078;21.014;2022-09-21T16:56:40;1.67;;;0.68;;
45254;SDS011;30989;52.078;21.014;2022-09-21T16:59:11;3.63;;;0.80;;
45254;SDS011;30989;52.078;21.014;2022-09-21T17:01:40;4.47;;;1.60;;
45254;SDS011;30989;52.078;21.014;2022-09-21T17:04:07;3.28;;;1.30;;
45254;SDS011;30989;52.078;21.014;2022-09-21T17:06:35;3.63;;;1.27;;
45254;SDS011;30989;52.078;21.014;2022-09-21T17:09:23;5.50;;;2.17;;
45254;SDS011;30989;52.078;21.014;2022-09-21T17:11:55;4.13;;;1.30;;
45254;SDS011;30989;52.078;21.014;2022-09-21T17:14:29;6.05;;;2.33;;
45254;SDS011;30989;52.078;21.014;2022-09-21T17:17:03;3.70;;;1.35;;
45254;SDS011;30989;52.078;21.014;2022-09-21T17:19:32;2.67;;;1.20;;
45254;SDS011;30989;52.078;21.014;2022-09-21T17:22:00;4.07;;;1.50;;
45254;SDS011;30989;52.078;21.014;2022-09-21T17:24:27;3.88;;;1.27;;
45254;SDS011;30989;52.078;21.014;2022-09-21T17:26:52;3.65;;;1.27;;
45254;SDS011;30989;52.078;21.014;2022-09-21T17:29:22;4.45;;;1.40;;
45254;SDS011;30989;52.078;21.014;2022-09-21T17:31:55;3.25;;;1.75;;
45254;SDS011;30989;52.078;21.014;2022-09-21T17:34:22;3.13;;;1.38;;
45254;SDS011;30989;52.078;21.014;2022-09-21T17:36:50;3.10;;;1.92;;
45254;SDS011;30989;52.078;21.014;2022-09-21T17:39:16;3.97;;;1.60;;
45254;SDS011;30989;52.078;21.014;2022-09-21T17:41:45;4.00;;;1.45;;
45254;SDS011;30989;52.078;21.014;2022-09-21T17:47:20;4.00;;;1.20;;
45254;SDS011;30989;52.078;21.014;2022-09-21T17:49:49;4.35;;;1.65;;
45254;SDS011;30989;52.078;21.014;2022-09-21T17:52:16;4.22;;;1.58;;
45254;SDS011;30989;52.078;21.014;2022-09-21T17:55:06;5.15;;;2.33;;
45254;SDS011;30989;52.078;21.014;2022-09-21T18:00:25;3.65;;;1.40;;
45254;SDS011;30989;52.078;21.014;2022-09-21T18:02:56;4.45;;;2.00;;
45254;SDS011;30989;52.078;21.014;2022-09-21T18:05:26;6.15;;;3.00;;
45254;SDS011;30989;52.078;21.014;2022-09-21T18:07:53;7.77;;;2.90;;
45254;SDS011;30989;52.078;21.014;2022-09-21T18:10:19;10.43;;;3.38;;
45254;SDS011;30989;52.078;21.014;2022-09-21T18:13:08;11.57;;;3.30;;
45254;SDS011;30989;52.078;21.014;2022-09-21T18:18:35;6.15;;;2.30;;
45254;SDS011;30989;52.078;21.014;2022-09-21T18:21:20;5.80;;;2.40;;
45254;SDS011;30989;52.078;21.014;2022-09-21T18:26:45;9.10;;;2.30;;
45254;SDS011;30989;52.078;21.014;2022-09-21T18:29:34;4.75;;;2.22;;
45254;SDS011;30989;52.078;21.014;2022-09-21T18:35:06;8.27;;;2.60;;
45254;SDS011;30989;52.078;21.014;2022-09-21T18:45:43;10.02;;;4.53;;
45254;SDS011;30989;52.078;21.014;2022-09-21T18:51:16;6.90;;;2.95;;
45254;SDS011;30989;52.078;21.014;2022-09-21T18:53:54;5.32;;;2.83;;
45254;SDS011;30989;52.078;21.014;2022-09-21T18:56:24;10.43;;;2.55;;
45254;SDS011;30989;52.078;21.014;2022-09-21T18:58:53;6.65;;;2.80;;
45254;SDS011;30989;52.078;21.014;2022-09-21T19:01:22;5.50;;;2.70;;
45254;SDS011;30989;52.078;21.014;2022-09-21T19:03:48;4.78;;;2.45;;
45254;SDS011;30989;52.078;21.014;2022-09-21T19:06:20;5.88;;;2.30;;
45254;SDS011;30989;52.078;21.014;2022-09-21T19:14:34;9.68;;;3.92;;
45254;SDS011;30989;52.078;21.014;2022-09-21T19:20:00;7.60;;;3.00;;
45254;SDS011;30989;52.078;21.014;2022-09-21T19:22:36;5.80;;;3.20;;
45254;SDS011;30989;52.078;21.014;2022-09-21T19:25:16;6.55;;;2.90;;
45254;SDS011;30989;52.078;21.014;2022-09-21T19:27:53;6.47;;;3.10;;
45254;SDS011;30989;52.078;21.014;2022-09-21T19:30:24;6.65;;;2.58;;
45254;SDS011;30989;52.078;21.014;2022-09-21T19:32:51;7.68;;;2.50;;
45254;SDS011;30989;52.078;21.014;2022-09-21T19:35:22;5.35;;;2.75;;